sensor_id;sensor_type;location;lat;lon;timestamp;temperature;humidity
18085;DHT22;9169;44.492;11.372;2023-03-01T00:01:42;9.40;54.00
18085;DHT22;9169;44.492;11.372;2023-03-01T00:04:11;9.40;54.00
18085;DHT22;9169;44.492;11.372;2023-03-01T00:06:39;9.40;54.00
18085;DHT22;9169;44.492;11.372;2023-03-01T00:09:08;9.50;54.10
18085;DHT22;9169;44.492;11.372;2023-03-01T00:11:36;9.50;53.80
18085;DHT22;9169;44.492;11.372;2023-03-01T00:14:06;9.40;53.60
18085;DHT22;9169;44.492;11.372;2023-03-01T00:16:37;9.40;53.60
18085;DHT22;9169;44.492;11.372;2023-03-01T00:19:08;9.50;53.60
18085;DHT22;9169;44.492;11.372;2023-03-01T00:21:37;9.50;53.60
18085;DHT22;9169;44.492;11.372;2023-03-01T00:24:06;9.50;53.50
18085;DHT22;9169;44.492;11.372;2023-03-01T00:26:35;9.40;53.30
18085;DHT22;9169;44.492;11.372;2023-03-01T00:29:03;9.40;53.20
18085;DHT22;9169;44.492;11.372;2023-03-01T00:31:33;9.40;53.10
18085;DHT22;9169;44.492;11.372;2023-03-01T00:34:03;9.40;53.10
18085;DHT22;9169;44.492;11.372;2023-03-01T00:36:34;9.40;53.10
18085;DHT22;9169;44.492;11.372;2023-03-01T00:39:05;9.40;53.10
18085;DHT22;9169;44.492;11.372;2023-03-01T00:41:34;9.40;53.20
18085;DHT22;9169;44.492;11.372;2023-03-01T00:44:03;9.50;53.20
18085;DHT22;9169;44.492;11.372;2023-03-01T00:46:33;9.50;53.10
18085;DHT22;9169;44.492;11.372;2023-03-01T00:49:02;9.50;52.90
18085;DHT22;9169;44.492;11.372;2023-03-01T00:51:32;9.50;52.70
18085;DHT22;9169;44.492;11.372;2023-03-01T00:54:02;9.40;52.60
18085;DHT22;9169;44.492;11.372;2023-03-01T00:56:31;9.30;52.50
18085;DHT22;9169;44.492;11.372;2023-03-01T00:59:00;9.30;52.50
18085;DHT22;9169;44.492;11.372;2023-03-01T01:01:29;9.30;52.60
18085;DHT22;9169;44.492;11.372;2023-03-01T01:04:02;9.40;52.60
18085;DHT22;9169;44.492;11.372;2023-03-01T01:06:31;9.30;52.40
18085;DHT22;9169;44.492;11.372;2023-03-01T01:09:01;9.30;52.30
18085;DHT22;9169;44.492;11.372;2023-03-01T01:11:30;9.30;52.30
18085;DHT22;9169;44.492;11.372;2023-03-01T01:13:59;9.20;52.20
18085;DHT22;9169;44.492;11.372;2023-03-01T01:16:29;9.20;52.10
18085;DHT22;9169;44.492;11.372;2023-03-01T01:18:59;9.20;52.20
18085;DHT22;9169;44.492;11.372;2023-03-01T01:21:27;9.20;52.20
18085;DHT22;9169;44.492;11.372;2023-03-01T01:23:56;9.20;52.30
18085;DHT22;9169;44.492;11.372;2023-03-01T01:26:26;9.20;52.30
18085;DHT22;9169;44.492;11.372;2023-03-01T01:28:56;9.20;52.20
18085;DHT22;9169;44.492;11.372;2023-03-01T01:31:25;9.20;52.20
18085;DHT22;9169;44.492;11.372;2023-03-01T01:33:55;9.20;52.20
18085;DHT22;9169;44.492;11.372;2023-03-01T01:36:25;9.20;52.20
18085;DHT22;9169;44.492;11.372;2023-03-01T01:38:54;9.20;52.20
18085;DHT22;9169;44.492;11.372;2023-03-01T01:41:25;9.20;52.20
18085;DHT22;9169;44.492;11.372;2023-03-01T01:44:15;9.30;52.30
18085;DHT22;9169;44.492;11.372;2023-03-01T01:46:46;9.30;52.30
18085;DHT22;9169;44.492;11.372;2023-03-01T01:49:24;9.30;52.30
18085;DHT22;9169;44.492;11.372;2023-03-01T01:51:58;9.30;52.30
18085;DHT22;9169;44.492;11.372;2023-03-01T01:54:32;9.30;52.20
18085;DHT22;9169;44.492;11.372;2023-03-01T01:57:07;9.30;52.80
18085;DHT22;9169;44.492;11.372;2023-03-01T01:59:38;9.40;52.20
18085;DHT22;9169;44.492;11.372;2023-03-01T02:02:07;9.30;52.20
18085;DHT22;9169;44.492;11.372;2023-03-01T02:04:35;9.30;52.20
18085;DHT22;9169;44.492;11.372;2023-03-01T02:07:09;9.30;52.10
18085;DHT22;9169;44.492;11.372;2023-03-01T02:09:45;9.30;52.10
18085;DHT22;9169;44.492;11.372;2023-03-01T02:12:14;9.30;52.20
18085;DHT22;9169;44.492;11.372;2023-03-01T02:14:44;9.20;52.20
18085;DHT22;9169;44.492;11.372;2023-03-01T02:17:14;9.30;52.30
18085;DHT22;9169;44.492;11.372;2023-03-01T02:19:54;9.30;52.20
18085;DHT22;9169;44.492;11.372;2023-03-01T02:22:28;9.30;52.20
18085;DHT22;9169;44.492;11.372;2023-03-01T02:25:07;9.30;52.20
18085;DHT22;9169;44.492;11.372;2023-03-01T02:27:44;9.30;52.20
18085;DHT22;9169;44.492;11.372;2023-03-01T02:30:15;9.30;52.10
18085;DHT22;9169;44.492;11.372;2023-03-01T02:32:44;9.30;52.00
18085;DHT22;9169;44.492;11.372;2023-03-01T02:35:14;9.30;51.90
18085;DHT22;9169;44.492;11.372;2023-03-01T02:37:44;9.30;51.90
18085;DHT22;9169;44.492;11.372;2023-03-01T02:40:16;9.30;51.80
18085;DHT22;9169;44.492;11.372;2023-03-01T02:42:49;9.30;51.70
18085;DHT22;9169;44.492;11.372;2023-03-01T02:45:20;9.30;51.60
18085;DHT22;9169;44.492;11.372;2023-03-01T02:47:49;9.20;51.60
18085;DHT22;9169;44.492;11.372;2023-03-01T02:50:29;9.20;51.50
18085;DHT22;9169;44.492;11.372;2023-03-01T02:53:08;9.20;51.60
18085;DHT22;9169;44.492;11.372;2023-03-01T02:55:39;9.10;51.50
18085;DHT22;9169;44.492;11.372;2023-03-01T02:58:08;9.20;51.60
18085;DHT22;9169;44.492;11.372;2023-03-01T03:00:40;9.10;51.50
18085;DHT22;9169;44.492;11.372;2023-03-01T03:03:14;9.00;51.50
18085;DHT22;9169;44.492;11.372;2023-03-01T03:05:43;9.00;51.60
18085;DHT22;9169;44.492;11.372;2023-03-01T03:08:11;9.00;51.60
18085;DHT22;9169;44.492;11.372;2023-03-01T03:10:41;9.00;51.50
18085;DHT22;9169;44.492;11.372;2023-03-01T03:13:12;9.00;51.60
18085;DHT22;9169;44.492;11.372;2023-03-01T03:15:43;9.10;51.70
18085;DHT22;9169;44.492;11.372;2023-03-01T03:18:14;9.00;51.70
18085;DHT22;9169;44.492;11.372;2023-03-01T03:20:43;9.00;51.70
18085;DHT22;9169;44.492;11.372;2023-03-01T03:23:12;9.00;51.90
18085;DHT22;9169;44.492;11.372;2023-03-01T03:25:40;9.00;52.00
18085;DHT22;9169;44.492;11.372;2023-03-01T03:28:09;9.00;52.20
18085;DHT22;9169;44.492;11.372;2023-03-01T03:30:39;9.00;52.30
18085;DHT22;9169;44.492;11.372;2023-03-01T03:33:11;9.10;52.50
18085;DHT22;9169;44.492;11.372;2023-03-01T03:35:41;9.00;52.30
18085;DHT22;9169;44.492;11.372;2023-03-01T03:38:12;9.00;52.40
18085;DHT22;9169;44.492;11.372;2023-03-01T03:40:45;9.00;52.50
18085;DHT22;9169;44.492;11.372;2023-03-01T03:43:16;9.20;52.60
18085;DHT22;9169;44.492;11.372;2023-03-01T03:45:46;9.10;53.20
18085;DHT22;9169;44.492;11.372;2023-03-01T03:48:17;9.00;52.80
18085;DHT22;9169;44.492;11.372;2023-03-01T03:50:48;9.00;52.80
18085;DHT22;9169;44.492;11.372;2023-03-01T03:53:17;8.90;52.70
18085;DHT22;9169;44.492;11.372;2023-03-01T03:55:46;8.90;52.80
18085;DHT22;9169;44.492;11.372;2023-03-01T03:58:16;8.80;52.90
18085;DHT22;9169;44.492;11.372;2023-03-01T04:00:47;8.80;52.90
18085;DHT22;9169;44.492;11.372;2023-03-01T04:03:18;8.80;52.90
18085;DHT22;9169;44.492;11.372;2023-03-01T04:05:48;8.70;52.80
18085;DHT22;9169;44.492;11.372;2023-03-01T04:08:17;8.70;52.80
18085;DHT22;9169;44.492;11.372;2023-03-01T04:10:49;8.70;52.90
18085;DHT22;9169;44.492;11.372;2023-03-01T04:13:20;8.60;53.40
18085;DHT22;9169;44.492;11.372;2023-03-01T04:15:49;8.60;52.90
18085;DHT22;9169;44.492;11.372;2023-03-01T04:18:20;8.60;52.90
18085;DHT22;9169;44.492;11.372;2023-03-01T04:20:49;8.60;53.00
18085;DHT22;9169;44.492;11.372;2023-03-01T04:23:20;8.50;52.90
18085;DHT22;9169;44.492;11.372;2023-03-01T04:25:50;8.50;53.50
18085;DHT22;9169;44.492;11.372;2023-03-01T04:28:21;8.40;53.10
18085;DHT22;9169;44.492;11.372;2023-03-01T04:30:52;8.40;53.20
18085;DHT22;9169;44.492;11.372;2023-03-01T04:33:22;8.30;53.20
18085;DHT22;9169;44.492;11.372;2023-03-01T04:35:50;8.30;53.20
18085;DHT22;9169;44.492;11.372;2023-03-01T04:38:19;8.30;53.20
18085;DHT22;9169;44.492;11.372;2023-03-01T04:40:48;8.30;53.20
18085;DHT22;9169;44.492;11.372;2023-03-01T04:43:16;8.30;53.20
18085;DHT22;9169;44.492;11.372;2023-03-01T04:45:45;8.30;53.40
18085;DHT22;9169;44.492;11.372;2023-03-01T04:48:13;8.30;53.50
18085;DHT22;9169;44.492;11.372;2023-03-01T04:50:43;8.30;53.50
18085;DHT22;9169;44.492;11.372;2023-03-01T04:53:11;8.40;53.70
18085;DHT22;9169;44.492;11.372;2023-03-01T04:55:39;8.40;53.60
18085;DHT22;9169;44.492;11.372;2023-03-01T04:58:08;8.40;53.70
18085;DHT22;9169;44.492;11.372;2023-03-01T05:00:36;8.40;53.80
18085;DHT22;9169;44.492;11.372;2023-03-01T05:03:05;8.40;53.70
18085;DHT22;9169;44.492;11.372;2023-03-01T05:05:34;8.40;53.80
18085;DHT22;9169;44.492;11.372;2023-03-01T05:08:06;8.30;53.70
18085;DHT22;9169;44.492;11.372;2023-03-01T05:10:36;8.30;53.80
18085;DHT22;9169;44.492;11.372;2023-03-01T05:13:05;8.20;53.80
18085;DHT22;9169;44.492;11.372;2023-03-01T05:15:34;8.20;53.90
18085;DHT22;9169;44.492;11.372;2023-03-01T05:18:03;8.10;54.20
18085;DHT22;9169;44.492;11.372;2023-03-01T05:20:38;8.10;54.30
18085;DHT22;9169;44.492;11.372;2023-03-01T05:23:07;8.10;54.50
18085;DHT22;9169;44.492;11.372;2023-03-01T05:25:36;8.00;54.50
18085;DHT22;9169;44.492;11.372;2023-03-01T05:28:10;8.00;54.50
18085;DHT22;9169;44.492;11.372;2023-03-01T05:30:39;8.00;54.60
18085;DHT22;9169;44.492;11.372;2023-03-01T05:33:08;7.90;54.70
18085;DHT22;9169;44.492;11.372;2023-03-01T05:35:40;7.80;54.80
18085;DHT22;9169;44.492;11.372;2023-03-01T05:38:12;7.70;55.00
18085;DHT22;9169;44.492;11.372;2023-03-01T05:40:41;7.70;55.70
18085;DHT22;9169;44.492;11.372;2023-03-01T05:43:11;7.60;55.30
18085;DHT22;9169;44.492;11.372;2023-03-01T05:45:40;7.50;55.40
18085;DHT22;9169;44.492;11.372;2023-03-01T05:48:10;7.50;55.50
18085;DHT22;9169;44.492;11.372;2023-03-01T05:50:41;7.50;55.90
18085;DHT22;9169;44.492;11.372;2023-03-01T05:53:12;7.50;56.00
18085;DHT22;9169;44.492;11.372;2023-03-01T05:55:42;7.50;56.10
18085;DHT22;9169;44.492;11.372;2023-03-01T05:58:12;7.50;56.10
18085;DHT22;9169;44.492;11.372;2023-03-01T06:00:43;7.60;56.30
18085;DHT22;9169;44.492;11.372;2023-03-01T06:03:13;7.60;56.30
18085;DHT22;9169;44.492;11.372;2023-03-01T06:05:42;7.60;56.50
18085;DHT22;9169;44.492;11.372;2023-03-01T06:08:13;7.60;56.50
18085;DHT22;9169;44.492;11.372;2023-03-01T06:10:41;7.60;56.60
18085;DHT22;9169;44.492;11.372;2023-03-01T06:13:09;7.70;56.70
18085;DHT22;9169;44.492;11.372;2023-03-01T06:15:38;7.70;56.70
18085;DHT22;9169;44.492;11.372;2023-03-01T06:18:06;7.60;56.70
18085;DHT22;9169;44.492;11.372;2023-03-01T06:20:37;7.60;56.90
18085;DHT22;9169;44.492;11.372;2023-03-01T06:23:06;7.60;56.90
18085;DHT22;9169;44.492;11.372;2023-03-01T06:25:37;7.50;57.10
18085;DHT22;9169;44.492;11.372;2023-03-01T06:28:05;7.50;56.90
18085;DHT22;9169;44.492;11.372;2023-03-01T06:30:34;7.40;57.00
18085;DHT22;9169;44.492;11.372;2023-03-01T06:33:02;7.40;57.10
18085;DHT22;9169;44.492;11.372;2023-03-01T06:35:31;7.40;57.20
18085;DHT22;9169;44.492;11.372;2023-03-01T06:38:01;7.40;57.30
18085;DHT22;9169;44.492;11.372;2023-03-01T06:40:31;7.40;57.60
18085;DHT22;9169;44.492;11.372;2023-03-01T06:43:00;7.40;57.70
18085;DHT22;9169;44.492;11.372;2023-03-01T06:45:29;7.40;57.80
18085;DHT22;9169;44.492;11.372;2023-03-01T06:48:04;7.40;57.80
18085;DHT22;9169;44.492;11.372;2023-03-01T06:50:33;7.40;57.80
18085;DHT22;9169;44.492;11.372;2023-03-01T06:53:02;7.50;57.80
18085;DHT22;9169;44.492;11.372;2023-03-01T06:55:31;7.50;57.80
18085;DHT22;9169;44.492;11.372;2023-03-01T06:58:02;7.40;57.90
18085;DHT22;9169;44.492;11.372;2023-03-01T07:00:31;7.40;57.90
18085;DHT22;9169;44.492;11.372;2023-03-01T07:03:00;7.40;58.00
18085;DHT22;9169;44.492;11.372;2023-03-01T07:05:30;7.40;58.10
18085;DHT22;9169;44.492;11.372;2023-03-01T07:07:58;7.40;58.10
18085;DHT22;9169;44.492;11.372;2023-03-01T07:10:27;7.40;58.20
18085;DHT22;9169;44.492;11.372;2023-03-01T07:12:56;7.30;58.30
18085;DHT22;9169;44.492;11.372;2023-03-01T07:15:26;7.40;58.40
18085;DHT22;9169;44.492;11.372;2023-03-01T07:17:56;7.40;58.50
18085;DHT22;9169;44.492;11.372;2023-03-01T07:20:24;7.40;58.50
18085;DHT22;9169;44.492;11.372;2023-03-01T07:22:53;7.40;58.60
18085;DHT22;9169;44.492;11.372;2023-03-01T07:25:22;7.30;58.50
18085;DHT22;9169;44.492;11.372;2023-03-01T07:27:51;7.30;58.50
18085;DHT22;9169;44.492;11.372;2023-03-01T07:30:20;7.30;58.50
18085;DHT22;9169;44.492;11.372;2023-03-01T07:32:51;7.30;58.50
18085;DHT22;9169;44.492;11.372;2023-03-01T07:35:21;7.40;58.80
18085;DHT22;9169;44.492;11.372;2023-03-01T07:37:50;7.40;58.80
18085;DHT22;9169;44.492;11.372;2023-03-01T07:40:18;7.30;58.70
18085;DHT22;9169;44.492;11.372;2023-03-01T07:42:47;7.30;58.80
18085;DHT22;9169;44.492;11.372;2023-03-01T07:45:15;7.20;58.80
18085;DHT22;9169;44.492;11.372;2023-03-01T07:47:44;7.20;59.00
18085;DHT22;9169;44.492;11.372;2023-03-01T07:50:14;7.20;59.10
18085;DHT22;9169;44.492;11.372;2023-03-01T07:52:44;7.10;59.20
18085;DHT22;9169;44.492;11.372;2023-03-01T07:55:12;7.20;59.40
18085;DHT22;9169;44.492;11.372;2023-03-01T07:57:41;7.20;59.40
18085;DHT22;9169;44.492;11.372;2023-03-01T08:00:11;7.20;59.50
18085;DHT22;9169;44.492;11.372;2023-03-01T08:02:40;7.20;59.50
18085;DHT22;9169;44.492;11.372;2023-03-01T08:05:09;7.20;59.60
18085;DHT22;9169;44.492;11.372;2023-03-01T08:07:39;7.20;59.60
18085;DHT22;9169;44.492;11.372;2023-03-01T08:10:09;7.20;59.60
18085;DHT22;9169;44.492;11.372;2023-03-01T08:12:37;7.20;59.50
18085;DHT22;9169;44.492;11.372;2023-03-01T08:15:07;7.10;59.70
18085;DHT22;9169;44.492;11.372;2023-03-01T08:17:36;7.10;59.70
18085;DHT22;9169;44.492;11.372;2023-03-01T08:20:05;7.10;59.80
18085;DHT22;9169;44.492;11.372;2023-03-01T08:22:34;7.10;60.00
18085;DHT22;9169;44.492;11.372;2023-03-01T08:25:04;7.00;60.10
18085;DHT22;9169;44.492;11.372;2023-03-01T08:27:32;7.10;60.40
18085;DHT22;9169;44.492;11.372;2023-03-01T08:30:01;7.00;60.30
18085;DHT22;9169;44.492;11.372;2023-03-01T08:32:29;7.00;60.40
18085;DHT22;9169;44.492;11.372;2023-03-01T08:34:57;7.00;60.60
18085;DHT22;9169;44.492;11.372;2023-03-01T08:37:26;6.90;60.50
18085;DHT22;9169;44.492;11.372;2023-03-01T08:39:57;7.00;60.50
18085;DHT22;9169;44.492;11.372;2023-03-01T08:42:27;7.00;60.70
18085;DHT22;9169;44.492;11.372;2023-03-01T08:44:55;7.00;61.00
18085;DHT22;9169;44.492;11.372;2023-03-01T08:47:24;7.00;61.00
18085;DHT22;9169;44.492;11.372;2023-03-01T08:49:53;7.00;61.00
18085;DHT22;9169;44.492;11.372;2023-03-01T08:52:21;7.00;61.10
18085;DHT22;9169;44.492;11.372;2023-03-01T08:54:51;7.00;61.20
18085;DHT22;9169;44.492;11.372;2023-03-01T08:57:19;7.00;61.30
18085;DHT22;9169;44.492;11.372;2023-03-01T08:59:49;7.00;61.40
18085;DHT22;9169;44.492;11.372;2023-03-01T09:02:18;7.10;61.50
18085;DHT22;9169;44.492;11.372;2023-03-01T09:04:47;7.10;61.50
18085;DHT22;9169;44.492;11.372;2023-03-01T09:07:15;7.10;61.60
18085;DHT22;9169;44.492;11.372;2023-03-01T09:09:44;7.10;61.40
18085;DHT22;9169;44.492;11.372;2023-03-01T09:12:12;7.10;61.50
18085;DHT22;9169;44.492;11.372;2023-03-01T09:14:40;7.00;61.30
18085;DHT22;9169;44.492;11.372;2023-03-01T09:17:10;7.00;61.20
18085;DHT22;9169;44.492;11.372;2023-03-01T09:19:38;7.00;61.30
18085;DHT22;9169;44.492;11.372;2023-03-01T09:22:07;7.00;61.30
18085;DHT22;9169;44.492;11.372;2023-03-01T09:24:35;7.00;61.20
18085;DHT22;9169;44.492;11.372;2023-03-01T09:27:03;7.00;61.30
18085;DHT22;9169;44.492;11.372;2023-03-01T09:29:35;7.10;61.30
18085;DHT22;9169;44.492;11.372;2023-03-01T09:32:04;7.10;61.40
18085;DHT22;9169;44.492;11.372;2023-03-01T09:34:34;7.10;61.20
18085;DHT22;9169;44.492;11.372;2023-03-01T09:37:23;7.00;61.30
18085;DHT22;9169;44.492;11.372;2023-03-01T09:39:51;7.00;61.60
18085;DHT22;9169;44.492;11.372;2023-03-01T09:42:20;7.10;62.50
18085;DHT22;9169;44.492;11.372;2023-03-01T09:44:51;7.10;61.80
18085;DHT22;9169;44.492;11.372;2023-03-01T09:47:26;7.10;61.60
18085;DHT22;9169;44.492;11.372;2023-03-01T09:50:03;7.10;61.90
18085;DHT22;9169;44.492;11.372;2023-03-01T09:52:39;7.10;62.60
18085;DHT22;9169;44.492;11.372;2023-03-01T09:55:11;7.10;61.90
18085;DHT22;9169;44.492;11.372;2023-03-01T09:57:45;7.10;61.90
18085;DHT22;9169;44.492;11.372;2023-03-01T10:00:30;7.10;61.80
18085;DHT22;9169;44.492;11.372;2023-03-01T10:03:06;7.10;62.00
18085;DHT22;9169;44.492;11.372;2023-03-01T10:05:44;7.10;62.10
18085;DHT22;9169;44.492;11.372;2023-03-01T10:08:28;7.10;62.30
18085;DHT22;9169;44.492;11.372;2023-03-01T10:11:00;7.10;62.30
18085;DHT22;9169;44.492;11.372;2023-03-01T10:13:35;7.10;62.30
18085;DHT22;9169;44.492;11.372;2023-03-01T10:16:10;7.10;62.40
18085;DHT22;9169;44.492;11.372;2023-03-01T10:18:40;7.20;62.60
18085;DHT22;9169;44.492;11.372;2023-03-01T10:21:14;7.20;62.60
18085;DHT22;9169;44.492;11.372;2023-03-01T10:23:44;7.20;62.70
18085;DHT22;9169;44.492;11.372;2023-03-01T10:26:23;7.20;62.70
18085;DHT22;9169;44.492;11.372;2023-03-01T10:29:01;7.20;62.80
18085;DHT22;9169;44.492;11.372;2023-03-01T10:31:38;7.20;62.70
18085;DHT22;9169;44.492;11.372;2023-03-01T10:34:10;7.20;62.70
18085;DHT22;9169;44.492;11.372;2023-03-01T10:36:42;7.30;62.70
18085;DHT22;9169;44.492;11.372;2023-03-01T10:39:14;7.30;62.70
18085;DHT22;9169;44.492;11.372;2023-03-01T10:42:01;7.30;62.90
18085;DHT22;9169;44.492;11.372;2023-03-01T10:44:40;7.30;62.80
18085;DHT22;9169;44.492;11.372;2023-03-01T10:47:15;7.40;62.60
18085;DHT22;9169;44.492;11.372;2023-03-01T10:49:59;7.40;62.60
18085;DHT22;9169;44.492;11.372;2023-03-01T10:52:31;7.40;62.60
18085;DHT22;9169;44.492;11.372;2023-03-01T10:55:03;7.40;62.30
18085;DHT22;9169;44.492;11.372;2023-03-01T10:57:38;7.30;62.30
18085;DHT22;9169;44.492;11.372;2023-03-01T11:00:21;7.30;62.30
18085;DHT22;9169;44.492;11.372;2023-03-01T11:03:03;7.30;62.30
18085;DHT22;9169;44.492;11.372;2023-03-01T11:05:37;7.30;62.30
18085;DHT22;9169;44.492;11.372;2023-03-01T11:08:33;7.30;62.20
18085;DHT22;9169;44.492;11.372;2023-03-01T11:11:23;7.30;62.40
18085;DHT22;9169;44.492;11.372;2023-03-01T11:13:57;7.30;62.30
18085;DHT22;9169;44.492;11.372;2023-03-01T11:16:29;7.20;62.10
18085;DHT22;9169;44.492;11.372;2023-03-01T11:19:03;7.30;62.30
18085;DHT22;9169;44.492;11.372;2023-03-01T11:21:33;7.30;62.40
18085;DHT22;9169;44.492;11.372;2023-03-01T11:24:06;7.20;62.20
18085;DHT22;9169;44.492;11.372;2023-03-01T11:26:41;7.30;62.20
18085;DHT22;9169;44.492;11.372;2023-03-01T11:29:18;7.30;62.20
18085;DHT22;9169;44.492;11.372;2023-03-01T11:31:50;7.30;62.00
18085;DHT22;9169;44.492;11.372;2023-03-01T11:34:36;7.30;61.90
18085;DHT22;9169;44.492;11.372;2023-03-01T11:37:13;7.20;61.60
18085;DHT22;9169;44.492;11.372;2023-03-01T11:39:51;7.10;61.60
18085;DHT22;9169;44.492;11.372;2023-03-01T11:42:28;7.10;61.60
18085;DHT22;9169;44.492;11.372;2023-03-01T11:44:59;7.00;61.40
18085;DHT22;9169;44.492;11.372;2023-03-01T11:47:38;7.10;61.40
18085;DHT22;9169;44.492;11.372;2023-03-01T11:50:20;6.90;61.30
18085;DHT22;9169;44.492;11.372;2023-03-01T11:53:01;6.90;61.50
18085;DHT22;9169;44.492;11.372;2023-03-01T11:55:51;6.90;61.40
18085;DHT22;9169;44.492;11.372;2023-03-01T11:58:41;6.80;61.40
18085;DHT22;9169;44.492;11.372;2023-03-01T12:01:25;6.70;61.60
18085;DHT22;9169;44.492;11.372;2023-03-01T12:07:11;6.60;62.00
18085;DHT22;9169;44.492;11.372;2023-03-01T12:09:56;6.60;62.10
18085;DHT22;9169;44.492;11.372;2023-03-01T12:12:36;6.60;62.10
18085;DHT22;9169;44.492;11.372;2023-03-01T12:15:29;6.60;62.10
18085;DHT22;9169;44.492;11.372;2023-03-01T12:18:14;6.60;62.30
18085;DHT22;9169;44.492;11.372;2023-03-01T12:20:53;6.60;62.30
18085;DHT22;9169;44.492;11.372;2023-03-01T12:26:29;6.60;62.00
18085;DHT22;9169;44.492;11.372;2023-03-01T12:29:23;6.70;61.80
18085;DHT22;9169;44.492;11.372;2023-03-01T12:32:25;6.70;61.50
18085;DHT22;9169;44.492;11.372;2023-03-01T12:35:25;6.70;61.30
18085;DHT22;9169;44.492;11.372;2023-03-01T12:38:05;6.70;61.10
18085;DHT22;9169;44.492;11.372;2023-03-01T12:41:04;6.70;60.80
18085;DHT22;9169;44.492;11.372;2023-03-01T12:43:44;6.70;60.60
18085;DHT22;9169;44.492;11.372;2023-03-01T12:46:23;6.60;60.40
18085;DHT22;9169;44.492;11.372;2023-03-01T12:49:02;6.60;60.40
18085;DHT22;9169;44.492;11.372;2023-03-01T12:51:38;6.60;60.40
18085;DHT22;9169;44.492;11.372;2023-03-01T12:54:14;6.60;60.30
18085;DHT22;9169;44.492;11.372;2023-03-01T12:56:44;6.50;60.40
18085;DHT22;9169;44.492;11.372;2023-03-01T12:59:23;6.60;60.50
18085;DHT22;9169;44.492;11.372;2023-03-01T13:02:04;6.50;60.30
18085;DHT22;9169;44.492;11.372;2023-03-01T13:04:54;6.50;60.30
18085;DHT22;9169;44.492;11.372;2023-03-01T13:07:29;6.40;60.30
18085;DHT22;9169;44.492;11.372;2023-03-01T13:10:10;6.40;60.20
18085;DHT22;9169;44.492;11.372;2023-03-01T13:12:52;6.40;60.30
18085;DHT22;9169;44.492;11.372;2023-03-01T13:15:34;6.30;60.30
18085;DHT22;9169;44.492;11.372;2023-03-01T13:18:29;6.30;60.40
18085;DHT22;9169;44.492;11.372;2023-03-01T13:21:00;6.40;60.60
18085;DHT22;9169;44.492;11.372;2023-03-01T13:23:35;6.40;60.40
18085;DHT22;9169;44.492;11.372;2023-03-01T13:26:15;6.40;60.20
18085;DHT22;9169;44.492;11.372;2023-03-01T13:28:50;6.40;60.00
18085;DHT22;9169;44.492;11.372;2023-03-01T13:34:54;6.20;60.00
18085;DHT22;9169;44.492;11.372;2023-03-01T13:37:28;6.10;60.00
18085;DHT22;9169;44.492;11.372;2023-03-01T13:40:00;6.10;60.20
18085;DHT22;9169;44.492;11.372;2023-03-01T13:42:40;6.10;60.50
18085;DHT22;9169;44.492;11.372;2023-03-01T13:45:22;6.10;60.80
18085;DHT22;9169;44.492;11.372;2023-03-01T13:47:55;6.10;61.80
18085;DHT22;9169;44.492;11.372;2023-03-01T13:50:29;6.20;61.20
18085;DHT22;9169;44.492;11.372;2023-03-01T13:53:03;6.30;61.40
18085;DHT22;9169;44.492;11.372;2023-03-01T13:55:38;6.10;61.40
18085;DHT22;9169;44.492;11.372;2023-03-01T13:58:16;6.10;61.80
18085;DHT22;9169;44.492;11.372;2023-03-01T14:00:56;6.10;61.90
18085;DHT22;9169;44.492;11.372;2023-03-01T14:03:26;6.10;62.20
18085;DHT22;9169;44.492;11.372;2023-03-01T14:06:03;6.10;62.20
18085;DHT22;9169;44.492;11.372;2023-03-01T14:08:41;6.10;63.10
18085;DHT22;9169;44.492;11.372;2023-03-01T14:11:35;6.10;62.50
18085;DHT22;9169;44.492;11.372;2023-03-01T14:17:30;6.10;62.80
18085;DHT22;9169;44.492;11.372;2023-03-01T14:20:08;6.00;63.00
18085;DHT22;9169;44.492;11.372;2023-03-01T14:22:41;6.00;63.10
18085;DHT22;9169;44.492;11.372;2023-03-01T14:25:34;6.00;63.30
18085;DHT22;9169;44.492;11.372;2023-03-01T14:28:12;6.10;63.70
18085;DHT22;9169;44.492;11.372;2023-03-01T14:30:43;6.10;63.90
18085;DHT22;9169;44.492;11.372;2023-03-01T14:33:22;6.10;64.10
18085;DHT22;9169;44.492;11.372;2023-03-01T14:35:56;6.10;64.10
18085;DHT22;9169;44.492;11.372;2023-03-01T14:38:32;6.10;64.20
18085;DHT22;9169;44.492;11.372;2023-03-01T14:41:06;6.20;64.30
18085;DHT22;9169;44.492;11.372;2023-03-01T14:43:37;6.20;64.40
18085;DHT22;9169;44.492;11.372;2023-03-01T14:46:06;6.10;64.40
18085;DHT22;9169;44.492;11.372;2023-03-01T14:48:34;6.20;64.70
18085;DHT22;9169;44.492;11.372;2023-03-01T14:51:05;6.10;64.70
18085;DHT22;9169;44.492;11.372;2023-03-01T14:53:34;6.10;64.90
18085;DHT22;9169;44.492;11.372;2023-03-01T14:56:17;6.20;65.00
18085;DHT22;9169;44.492;11.372;2023-03-01T14:58:45;6.20;65.00
18085;DHT22;9169;44.492;11.372;2023-03-01T15:01:16;6.20;65.10
18085;DHT22;9169;44.492;11.372;2023-03-01T15:03:46;6.20;65.20
18085;DHT22;9169;44.492;11.372;2023-03-01T15:06:17;6.20;65.30
18085;DHT22;9169;44.492;11.372;2023-03-01T15:08:50;6.20;65.40
18085;DHT22;9169;44.492;11.372;2023-03-01T15:11:23;6.30;65.40
18085;DHT22;9169;44.492;11.372;2023-03-01T15:13:52;6.30;65.30
18085;DHT22;9169;44.492;11.372;2023-03-01T15:16:23;6.30;65.30
18085;DHT22;9169;44.492;11.372;2023-03-01T15:18:53;6.30;65.20
18085;DHT22;9169;44.492;11.372;2023-03-01T15:21:24;6.30;65.30
18085;DHT22;9169;44.492;11.372;2023-03-01T15:23:59;6.30;65.20
18085;DHT22;9169;44.492;11.372;2023-03-01T15:26:31;6.30;65.30
18085;DHT22;9169;44.492;11.372;2023-03-01T15:29:01;6.30;65.30
18085;DHT22;9169;44.492;11.372;2023-03-01T15:31:32;6.30;65.40
18085;DHT22;9169;44.492;11.372;2023-03-01T15:34:21;6.40;65.60
18085;DHT22;9169;44.492;11.372;2023-03-01T15:36:51;6.40;65.30
18085;DHT22;9169;44.492;11.372;2023-03-01T15:39:40;6.30;65.00
18085;DHT22;9169;44.492;11.372;2023-03-01T15:42:12;6.30;65.40
18085;DHT22;9169;44.492;11.372;2023-03-01T15:44:41;6.30;65.20
18085;DHT22;9169;44.492;11.372;2023-03-01T15:47:27;6.20;65.20
18085;DHT22;9169;44.492;11.372;2023-03-01T15:49:56;6.30;65.30
18085;DHT22;9169;44.492;11.372;2023-03-01T15:52:28;6.20;65.20
18085;DHT22;9169;44.492;11.372;2023-03-01T15:55:00;6.30;65.30
18085;DHT22;9169;44.492;11.372;2023-03-01T15:57:29;6.30;65.40
18085;DHT22;9169;44.492;11.372;2023-03-01T15:59:58;6.30;65.40
18085;DHT22;9169;44.492;11.372;2023-03-01T16:02:26;6.30;65.60
18085;DHT22;9169;44.492;11.372;2023-03-01T16:04:54;6.30;66.30
18085;DHT22;9169;44.492;11.372;2023-03-01T16:07:24;6.30;65.40
18085;DHT22;9169;44.492;11.372;2023-03-01T16:09:54;6.20;65.00
18085;DHT22;9169;44.492;11.372;2023-03-01T16:12:24;6.20;65.20
18085;DHT22;9169;44.492;11.372;2023-03-01T16:14:53;6.20;65.50
18085;DHT22;9169;44.492;11.372;2023-03-01T16:17:21;6.20;65.60
18085;DHT22;9169;44.492;11.372;2023-03-01T16:19:49;6.20;65.50
18085;DHT22;9169;44.492;11.372;2023-03-01T16:22:19;6.10;65.10
18085;DHT22;9169;44.492;11.372;2023-03-01T16:24:52;6.10;65.80
18085;DHT22;9169;44.492;11.372;2023-03-01T16:27:20;6.10;65.90
18085;DHT22;9169;44.492;11.372;2023-03-01T16:29:50;6.10;66.20
18085;DHT22;9169;44.492;11.372;2023-03-01T16:32:19;6.10;66.40